createdAt,value
2022-11-29T00:01:02.590Z,101310.69
2022-11-29T00:03:30.980Z,101302.84
2022-11-29T00:06:04.561Z,101307.00
2022-11-29T00:08:32.218Z,101308.63
2022-11-29T00:11:06.116Z,101306.19
2022-11-29T00:13:32.773Z,101302.72
2022-11-29T00:16:03.702Z,101318.69
2022-11-29T00:18:31.547Z,101315.13
2022-11-29T00:20:59.250Z,101318.75
2022-11-29T00:23:27.062Z,101326.72
2022-11-29T00:25:54.642Z,101327.72
2022-11-29T00:28:23.588Z,101321.72
2022-11-29T00:30:51.256Z,101328.84
2022-11-29T00:33:18.956Z,101326.03
2022-11-29T00:35:46.473Z,101332.38
2022-11-29T00:38:14.056Z,101331.94
2022-11-29T00:40:41.640Z,101321.59
2022-11-29T00:43:09.291Z,101321.06
2022-11-29T00:45:38.266Z,101326.25
2022-11-29T00:48:06.151Z,101320.75
2022-11-29T00:50:33.725Z,101326.84
2022-11-29T00:53:01.375Z,101329.06
2022-11-29T00:55:29.018Z,101330.78
2022-11-29T00:57:56.649Z,101327.06
2022-11-29T01:00:24.340Z,101334.72
2022-11-29T01:02:53.347Z,101330.59
2022-11-29T01:05:20.925Z,101325.66
2022-11-29T01:07:48.595Z,101336.00
2022-11-29T01:10:16.251Z,101334.72
2022-11-29T01:12:44.039Z,101340.75
2022-11-29T01:15:12.188Z,101329.81
2022-11-29T01:17:40.748Z,101354.66
2022-11-29T01:20:12.740Z,101351.00
2022-11-29T01:22:41.231Z,101355.22
2022-11-29T01:25:09.995Z,101357.00
2022-11-29T01:27:37.605Z,101358.53
2022-11-29T01:30:05.747Z,101355.00
2022-11-29T01:32:33.504Z,101351.59
2022-11-29T01:35:01.278Z,101350.28
2022-11-29T01:37:30.811Z,101359.63
2022-11-29T01:39:58.517Z,101361.72
2022-11-29T01:42:26.332Z,101353.81
2022-11-29T01:45:14.579Z,101358.19
2022-11-29T01:47:46.865Z,101354.47
2022-11-29T01:50:15.203Z,101355.34
2022-11-29T01:52:44.650Z,101358.28
2022-11-29T01:55:12.571Z,101362.22
2022-11-29T01:57:43.566Z,101357.03
2022-11-29T02:00:14.122Z,101362.09
2022-11-29T02:02:45.353Z,101367.13
2022-11-29T02:05:15.820Z,101368.25
2022-11-29T02:07:47.424Z,101368.25
2022-11-29T02:10:16.596Z,101370.41
2022-11-29T02:12:56.001Z,101376.19
2022-11-29T02:15:35.071Z,101364.81
2022-11-29T02:18:07.819Z,101375.44
2022-11-29T02:21:12.359Z,101371.16
2022-11-29T02:24:07.358Z,101370.53
2022-11-29T02:27:03.554Z,101373.44
2022-11-29T02:29:49.966Z,101368.22
2022-11-29T02:33:05.025Z,101373.00
2022-11-29T02:35:51.941Z,101375.53
2022-11-29T02:38:31.393Z,101381.91
2022-11-29T02:41:14.156Z,101382.13
2022-11-29T02:43:59.372Z,101381.63
2022-11-29T02:46:43.535Z,101381.97
2022-11-29T02:49:20.767Z,101386.59
2022-11-29T02:51:57.850Z,101390.53
2022-11-29T02:54:30.809Z,101397.53
2022-11-29T02:57:05.957Z,101391.88
2022-11-29T02:59:46.412Z,101399.38
2022-11-29T03:02:24.011Z,101401.00
2022-11-29T03:04:59.833Z,101412.03
2022-11-29T03:07:46.019Z,101404.22
2022-11-29T03:10:24.454Z,101412.81
2022-11-29T03:12:54.941Z,101405.19
2022-11-29T03:15:30.174Z,101408.97
2022-11-29T03:18:20.729Z,101420.63
2022-11-29T03:21:04.356Z,101416.91
2022-11-29T03:23:38.845Z,101412.03
2022-11-29T03:26:10.044Z,101420.94
2022-11-29T03:28:44.310Z,101426.63
2022-11-29T03:31:17.212Z,101422.72
2022-11-29T03:33:54.688Z,101425.03
2022-11-29T03:36:35.096Z,101428.13
2022-11-29T03:39:08.519Z,101424.72
2022-11-29T03:41:41.290Z,101438.03
2022-11-29T03:44:14.015Z,101442.16
2022-11-29T03:46:48.886Z,101440.53
2022-11-29T03:49:22.556Z,101444.38
2022-11-29T03:52:01.688Z,101449.97
2022-11-29T03:54:39.199Z,101451.66
2022-11-29T03:57:07.667Z,101450.56
2022-11-29T03:59:54.910Z,101451.22
2022-11-29T04:03:02.924Z,101455.16
2022-11-29T04:05:49.262Z,101452.34
2022-11-29T04:08:51.243Z,101458.06
2022-11-29T04:12:06.616Z,101458.44
2022-11-29T04:15:12.787Z,101455.16
2022-11-29T04:18:13.318Z,101461.34
2022-11-29T04:21:01.559Z,101468.78
2022-11-29T04:24:10.403Z,101458.38
2022-11-29T04:27:05.217Z,101471.97
2022-11-29T04:30:09.744Z,101469.88
2022-11-29T04:33:21.016Z,101469.94
2022-11-29T04:36:21.991Z,101474.94
2022-11-29T04:39:16.353Z,101476.22
2022-11-29T04:42:13.314Z,101480.78
2022-11-29T04:45:04.770Z,101474.34
2022-11-29T04:48:01.868Z,101485.13
2022-11-29T04:50:45.157Z,101493.44
2022-11-29T04:53:31.083Z,101498.00
2022-11-29T04:56:10.086Z,101497.59
2022-11-29T04:58:44.643Z,101499.56
2022-11-29T05:01:24.386Z,101498.06
2022-11-29T05:04:01.969Z,101502.38
2022-11-29T05:06:38.329Z,101492.06
2022-11-29T05:09:18.722Z,101498.19
2022-11-29T05:11:58.756Z,101506.91
2022-11-29T05:14:36.826Z,101507.19
2022-11-29T05:17:31.700Z,101519.06
2022-11-29T05:20:14.362Z,101512.09
2022-11-29T05:22:54.041Z,101522.91
2022-11-29T05:25:39.694Z,101532.50
2022-11-29T05:28:16.149Z,101517.03
2022-11-29T05:31:06.599Z,101525.78
2022-11-29T05:33:54.481Z,101516.63
2022-11-29T05:36:33.906Z,101524.13
2022-11-29T05:39:17.662Z,101539.28
2022-11-29T05:42:02.291Z,101539.28
2022-11-29T05:44:35.057Z,101539.88
2022-11-29T05:47:04.598Z,101544.66
2022-11-29T05:49:42.188Z,101550.22
2022-11-29T05:52:24.440Z,101555.84
2022-11-29T05:55:10.713Z,101562.88
2022-11-29T05:57:44.427Z,101564.47
2022-11-29T06:00:14.656Z,101565.59
2022-11-29T06:02:51.010Z,101571.63
2022-11-29T06:05:28.309Z,101573.91
2022-11-29T06:08:03.697Z,101569.69
2022-11-29T06:10:34.860Z,101574.38
2022-11-29T06:13:14.140Z,101572.06
2022-11-29T06:15:58.735Z,101575.19
2022-11-29T06:18:51.424Z,101575.75
2022-11-29T06:21:27.464Z,101568.94
2022-11-29T06:24:19.475Z,101579.22
2022-11-29T06:27:12.329Z,101584.66
2022-11-29T06:29:48.347Z,101582.44
2022-11-29T06:32:25.400Z,101592.72
2022-11-29T06:34:59.173Z,101583.19
2022-11-29T06:37:32.404Z,101592.03
2022-11-29T06:40:02.035Z,101595.31
2022-11-29T06:42:29.706Z,101601.19
2022-11-29T06:44:58.026Z,101597.47
2022-11-29T06:47:30.110Z,101594.63
2022-11-29T06:50:02.119Z,101591.63
2022-11-29T06:52:38.667Z,101610.22
2022-11-29T06:55:19.151Z,101620.38
2022-11-29T06:58:04.753Z,101629.81
2022-11-29T07:00:42.686Z,101629.81
2022-11-29T07:03:28.680Z,101631.59
2022-11-29T07:05:57.999Z,101639.13
2022-11-29T07:08:26.330Z,101645.28
2022-11-29T07:10:56.182Z,101634.91
2022-11-29T07:13:24.372Z,101653.81
2022-11-29T07:16:04.830Z,101655.84
2022-11-29T07:18:39.967Z,101641.88
2022-11-29T07:21:19.169Z,101661.56
2022-11-29T07:23:57.963Z,101654.34
2022-11-29T07:26:30.896Z,101672.25
2022-11-29T07:29:10.916Z,101672.03
2022-11-29T07:31:55.879Z,101670.53
2022-11-29T07:34:36.546Z,101673.38
2022-11-29T07:37:12.340Z,101676.78
2022-11-29T07:39:50.487Z,101683.22
2022-11-29T07:42:30.393Z,101680.66
2022-11-29T07:45:07.490Z,101690.22
2022-11-29T07:47:36.325Z,101697.59
2022-11-29T07:50:05.051Z,101694.16
2022-11-29T07:52:34.676Z,101695.56
2022-11-29T07:55:03.798Z,101703.22
2022-11-29T07:57:34.002Z,101702.53
2022-11-29T08:00:02.650Z,101709.53
2022-11-29T08:02:32.127Z,101701.19
2022-11-29T08:05:01.981Z,101706.38
2022-11-29T08:07:30.736Z,101705.41
2022-11-29T08:09:58.190Z,101721.97
2022-11-29T08:12:26.891Z,101718.13
2022-11-29T08:14:55.774Z,101715.13
2022-11-29T08:17:23.255Z,101720.34
2022-11-29T08:19:50.845Z,101718.97
2022-11-29T08:22:18.516Z,101720.88
2022-11-29T08:24:46.514Z,101722.47
2022-11-29T08:27:14.342Z,101734.09
2022-11-29T08:29:41.900Z,101732.34
2022-11-29T08:32:10.957Z,101741.09
2022-11-29T08:34:38.586Z,101738.88
2022-11-29T08:37:06.291Z,101736.44
2022-11-29T08:39:33.861Z,101740.81
2022-11-29T08:42:01.558Z,101738.47
2022-11-29T08:44:29.297Z,101739.66
2022-11-29T08:47:14.524Z,101743.22
2022-11-29T08:49:57.336Z,101745.00
2022-11-29T08:52:42.785Z,101748.16
2022-11-29T08:55:10.835Z,101744.63
2022-11-29T08:57:40.462Z,101744.78
2022-11-29T09:00:09.683Z,101739.06
2022-11-29T09:02:37.477Z,101743.44
2022-11-29T09:05:08.029Z,101745.19
2022-11-29T09:07:36.097Z,101740.94
2022-11-29T09:10:05.430Z,101750.53
2022-11-29T09:12:33.682Z,101751.34
2022-11-29T09:15:01.377Z,101752.00
2022-11-29T09:17:28.926Z,101759.47
2022-11-29T09:19:56.530Z,101755.38
2022-11-29T09:22:25.507Z,101769.66
2022-11-29T09:24:53.071Z,101767.69
2022-11-29T09:27:20.669Z,101771.03
2022-11-29T09:29:48.291Z,101767.06
2022-11-29T09:32:15.903Z,101766.97
2022-11-29T09:34:43.894Z,101765.16
2022-11-29T09:37:11.620Z,101783.72
2022-11-29T09:39:41.655Z,101781.25
2022-11-29T09:42:23.417Z,101785.06
2022-11-29T09:45:04.112Z,101782.91
2022-11-29T09:47:44.917Z,101783.31
2022-11-29T09:50:26.584Z,101800.91
2022-11-29T09:53:19.071Z,101798.13
2022-11-29T09:56:01.022Z,101802.66
2022-11-29T09:58:32.816Z,101799.66
2022-11-29T10:01:05.168Z,101802.16
2022-11-29T10:03:36.516Z,101810.22
2022-11-29T10:06:09.701Z,101809.50
2022-11-29T10:08:42.540Z,101816.50
2022-11-29T10:11:18.921Z,101823.13
2022-11-29T10:13:49.978Z,101823.28
2022-11-29T10:16:26.613Z,101829.19
2022-11-29T10:19:00.966Z,101819.22
2022-11-29T10:21:33.476Z,101815.75
2022-11-29T10:24:05.450Z,101819.00
2022-11-29T10:26:35.457Z,101818.75
2022-11-29T10:29:03.390Z,101811.53
2022-11-29T10:31:35.816Z,101816.75
2022-11-29T10:34:13.457Z,101818.28
2022-11-29T10:36:45.599Z,101819.34
2022-11-29T10:39:17.709Z,101820.56
2022-11-29T10:41:47.708Z,101821.94
2022-11-29T10:44:16.013Z,101821.81
2022-11-29T10:46:43.927Z,101820.16
2022-11-29T10:49:15.956Z,101815.53
2022-11-29T10:51:43.878Z,101807.06
2022-11-29T10:54:29.495Z,101812.41
2022-11-29T10:57:00.617Z,101816.09
2022-11-29T10:59:30.561Z,101812.25
2022-11-29T11:01:58.748Z,101810.06
2022-11-29T11:04:30.054Z,101812.66
2022-11-29T11:07:01.247Z,101818.03
2022-11-29T11:09:34.923Z,101813.78
2022-11-29T11:12:06.018Z,101776.69
2022-11-29T11:14:37.437Z,101808.97
2022-11-29T11:17:26.896Z,101802.53
2022-11-29T11:20:00.771Z,101803.34
2022-11-29T11:22:31.295Z,101807.06
2022-11-29T11:25:01.686Z,101812.78
2022-11-29T11:27:33.625Z,101807.88
2022-11-29T11:30:02.547Z,101814.03
2022-11-29T11:32:30.215Z,101805.28
2022-11-29T11:34:59.426Z,101807.44
2022-11-29T11:37:28.865Z,101806.19
2022-11-29T11:39:58.737Z,101806.69
2022-11-29T11:42:47.020Z,101808.53
2022-11-29T11:45:30.962Z,101809.50
2022-11-29T11:48:01.050Z,101816.19
2022-11-29T11:50:32.553Z,101813.06
2022-11-29T11:53:04.883Z,101786.94
2022-11-29T11:55:37.527Z,101820.72
2022-11-29T11:58:17.529Z,101826.28
2022-11-29T12:01:06.030Z,101814.03
2022-11-29T12:03:40.572Z,101820.53
2022-11-29T12:06:28.322Z,101830.28
2022-11-29T12:09:02.230Z,101825.81
2022-11-29T12:11:35.074Z,101830.38
2022-11-29T12:14:06.117Z,101841.06
2022-11-29T12:16:38.954Z,101830.41
2022-11-29T12:19:16.076Z,101836.53
2022-11-29T12:21:48.521Z,101843.56
2022-11-29T12:24:24.929Z,101836.47
2022-11-29T12:26:57.593Z,101839.84
2022-11-29T12:29:29.821Z,101846.25
2022-11-29T12:32:12.372Z,101857.09
2022-11-29T12:34:52.307Z,101863.00
2022-11-29T12:37:26.751Z,101867.28
2022-11-29T12:40:04.283Z,101860.41
2022-11-29T12:42:45.881Z,101867.88
2022-11-29T12:45:39.827Z,101875.75
2022-11-29T12:48:20.752Z,101881.06
2022-11-29T12:50:58.120Z,101873.78
2022-11-29T12:53:50.092Z,101877.00
2022-11-29T12:56:26.867Z,101885.69
2022-11-29T12:59:10.586Z,101886.59
2022-11-29T13:01:53.676Z,101889.03
2022-11-29T13:04:36.229Z,101886.38
2022-11-29T13:07:12.189Z,101881.03
2022-11-29T13:10:01.248Z,101883.50
2022-11-29T13:12:36.220Z,101884.09
2022-11-29T13:15:09.865Z,101887.28
2022-11-29T13:17:42.293Z,101878.91
2022-11-29T13:20:29.654Z,101895.88
2022-11-29T13:23:02.073Z,101894.16
2022-11-29T13:25:34.620Z,101887.78
2022-11-29T13:28:06.749Z,101889.94
2022-11-29T13:30:36.029Z,101892.84
2022-11-29T13:33:12.442Z,101894.53
2022-11-29T13:35:48.024Z,101899.88
2022-11-29T13:38:24.050Z,101890.66
2022-11-29T13:40:59.091Z,101892.19
2022-11-29T13:43:35.025Z,101892.75
2022-11-29T13:46:15.752Z,101897.34
2022-11-29T13:48:49.144Z,101888.72
2022-11-29T13:51:30.921Z,101894.63
2022-11-29T13:54:00.745Z,101886.38
2022-11-29T13:56:42.798Z,101889.31
2022-11-29T13:59:18.478Z,101895.59
2022-11-29T14:01:51.379Z,101889.84
2022-11-29T14:04:31.085Z,101890.13
2022-11-29T14:07:12.396Z,101891.50
2022-11-29T14:09:49.268Z,101888.03
2022-11-29T14:12:30.997Z,101876.84
2022-11-29T14:15:03.771Z,101890.81
2022-11-29T14:17:47.432Z,101897.97
2022-11-29T14:20:51.664Z,101897.94
2022-11-29T14:23:42.267Z,101891.25
2022-11-29T14:26:30.437Z,101889.97
2022-11-29T14:28:59.608Z,101899.63
2022-11-29T14:31:54.268Z,101901.16
2022-11-29T14:34:33.968Z,101913.16
2022-11-29T14:37:15.440Z,101911.78
2022-11-29T14:39:47.885Z,101897.13
2022-11-29T14:42:18.713Z,101904.38
2022-11-29T14:44:55.205Z,101911.38
2022-11-29T14:47:26.297Z,101911.66
2022-11-29T14:49:56.059Z,101913.84
2022-11-29T14:52:30.507Z,101914.00
2022-11-29T14:55:02.668Z,101915.06
2022-11-29T14:58:08.863Z,101917.75
2022-11-29T15:00:43.299Z,101910.81
2022-11-29T15:03:13.848Z,101914.88
2022-11-29T15:05:44.181Z,101901.50
2022-11-29T15:08:18.829Z,101913.00
2022-11-29T15:10:51.133Z,101919.78
2022-11-29T15:13:26.971Z,101915.38
2022-11-29T15:16:13.804Z,101920.31
2022-11-29T15:19:06.897Z,101918.78
2022-11-29T15:21:43.730Z,101928.22
2022-11-29T15:24:13.547Z,101930.09
2022-11-29T15:26:55.898Z,101929.78
2022-11-29T15:29:24.140Z,101929.44
2022-11-29T15:31:55.108Z,101932.19
2022-11-29T15:34:32.478Z,101932.31
2022-11-29T15:37:00.808Z,101927.72
2022-11-29T15:39:31.893Z,101933.97
2022-11-29T15:42:11.225Z,101935.38
2022-11-29T15:44:39.357Z,101934.06
2022-11-29T15:47:17.852Z,101928.03
2022-11-29T15:49:45.476Z,101935.03
2022-11-29T15:52:20.931Z,101929.44
2022-11-29T15:54:53.516Z,101945.81
2022-11-29T15:57:27.375Z,101951.53
2022-11-29T15:59:58.023Z,101952.22
2022-11-29T16:02:28.889Z,101955.25
2022-11-29T16:05:00.876Z,101961.53
2022-11-29T16:07:32.273Z,101959.84
2022-11-29T16:10:04.698Z,101959.72
2022-11-29T16:12:33.739Z,101955.19
2022-11-29T16:15:02.423Z,101955.78
2022-11-29T16:17:32.588Z,101941.22
2022-11-29T16:20:23.620Z,101965.78
2022-11-29T16:23:11.456Z,101959.31
2022-11-29T16:25:56.914Z,101953.59
2022-11-29T16:28:30.468Z,101964.00
2022-11-29T16:30:58.514Z,101958.81
2022-11-29T16:33:26.151Z,101959.84
2022-11-29T16:36:05.202Z,101956.47
2022-11-29T16:38:33.110Z,101957.16
2022-11-29T16:41:06.411Z,101950.97
2022-11-29T16:43:53.428Z,101961.78
2022-11-29T16:46:30.240Z,101962.38
2022-11-29T16:49:00.807Z,101948.22
2022-11-29T16:51:37.273Z,101959.63
2022-11-29T16:54:23.127Z,101950.78
2022-11-29T16:56:51.819Z,101960.19
2022-11-29T16:59:27.465Z,101956.63
2022-11-29T17:01:56.795Z,101960.84
2022-11-29T17:04:25.303Z,101965.22
2022-11-29T17:06:53.705Z,101967.56
2022-11-29T17:09:25.123Z,101970.03
2022-11-29T17:11:53.230Z,101975.34
2022-11-29T17:14:22.342Z,101974.47
2022-11-29T17:16:50.390Z,101972.53
2022-11-29T17:19:19.754Z,101972.22
2022-11-29T17:21:47.577Z,101971.72
2022-11-29T17:24:18.242Z,101980.22
2022-11-29T17:26:47.016Z,101955.53
2022-11-29T17:29:15.472Z,101974.56
2022-11-29T17:31:45.464Z,101973.75
2022-11-29T17:34:13.123Z,101982.09
2022-11-29T17:36:41.956Z,101970.56
2022-11-29T17:39:09.561Z,101981.19
2022-11-29T17:41:37.139Z,101985.31
2022-11-29T17:44:05.172Z,101986.94
2022-11-29T17:46:34.427Z,101989.28
2022-11-29T17:49:06.167Z,101984.44
2022-11-29T17:51:52.362Z,101996.16
2022-11-29T17:54:20.788Z,101987.81
2022-11-29T17:56:48.571Z,101991.09
2022-11-29T17:59:16.480Z,101997.03
2022-11-29T18:01:46.829Z,101999.59
2022-11-29T18:04:16.069Z,102004.22
2022-11-29T18:06:43.806Z,101996.06
2022-11-29T18:09:12.768Z,102000.19
2022-11-29T18:11:47.453Z,101995.81
2022-11-29T18:14:18.003Z,101995.09
2022-11-29T18:16:46.153Z,102013.78
2022-11-29T18:19:17.061Z,102018.16
2022-11-29T18:21:45.209Z,102014.94
2022-11-29T18:24:13.212Z,102017.78
2022-11-29T18:26:41.288Z,102017.88
2022-11-29T18:29:09.835Z,102020.97
2022-11-29T18:31:39.121Z,102017.34
2022-11-29T18:34:09.544Z,102024.19
2022-11-29T18:36:42.806Z,102022.75
2022-11-29T18:39:13.855Z,102029.00
2022-11-29T18:41:43.036Z,102022.53
2022-11-29T18:44:12.736Z,102030.78
2022-11-29T18:46:42.986Z,102036.56
2022-11-29T18:49:12.179Z,102039.06
2022-11-29T18:51:42.970Z,102036.22
2022-11-29T18:54:10.946Z,102035.72
2022-11-29T18:56:39.555Z,102039.03
2022-11-29T18:59:10.161Z,102043.41
2022-11-29T19:01:41.098Z,102051.91
2022-11-29T19:04:10.414Z,102045.38
2022-11-29T19:06:39.901Z,102041.97
2022-11-29T19:09:13.235Z,102047.66
2022-11-29T19:11:41.458Z,102044.88
2022-11-29T19:14:12.398Z,102047.97
2022-11-29T19:16:41.919Z,102054.38
2022-11-29T19:19:09.716Z,102050.06
2022-11-29T19:21:39.547Z,102051.38
2022-11-29T19:24:14.673Z,102052.06
2022-11-29T19:26:44.409Z,102048.94
2022-11-29T19:29:13.018Z,102044.06
2022-11-29T19:31:40.718Z,102048.19
2022-11-29T19:34:08.449Z,102047.59
2022-11-29T19:36:37.292Z,102052.44
2022-11-29T19:39:04.885Z,102053.34
2022-11-29T19:41:35.102Z,102051.06
2022-11-29T19:44:04.722Z,102052.44
2022-11-29T19:46:34.930Z,102054.22
2022-11-29T19:49:03.384Z,102055.88
2022-11-29T19:51:31.985Z,102044.94
2022-11-29T19:54:02.001Z,102049.84
2022-11-29T19:56:30.730Z,102056.56
2022-11-29T19:59:00.716Z,102054.50
2022-11-29T20:01:39.295Z,102058.09
2022-11-29T20:04:08.418Z,102064.84
2022-11-29T20:06:36.275Z,102065.44
2022-11-29T20:09:04.390Z,102065.31
2022-11-29T20:11:32.011Z,102075.94
2022-11-29T20:14:02.318Z,102072.81
2022-11-29T20:16:31.147Z,102069.09
2022-11-29T20:18:59.010Z,102073.47
2022-11-29T20:21:28.506Z,102074.47
2022-11-29T20:23:57.272Z,102065.59
2022-11-29T20:26:24.742Z,102070.28
2022-11-29T20:28:52.427Z,102055.44
2022-11-29T20:31:23.177Z,102063.56
2022-11-29T20:33:53.506Z,102067.53
2022-11-29T20:36:38.694Z,102067.38
2022-11-29T20:39:18.252Z,102067.13
2022-11-29T20:41:51.841Z,102074.38
2022-11-29T20:44:22.777Z,102070.41
2022-11-29T20:46:52.191Z,102079.69
2022-11-29T20:49:20.214Z,102074.13
2022-11-29T20:51:56.416Z,102080.72
2022-11-29T20:54:24.114Z,102086.06
2022-11-29T20:56:51.748Z,102085.69
2022-11-29T20:59:19.294Z,102089.94
2022-11-29T21:01:47.038Z,102088.69
2022-11-29T21:04:21.626Z,102097.88
2022-11-29T21:06:50.838Z,102091.72
2022-11-29T21:09:18.422Z,102093.16
2022-11-29T21:11:46.619Z,102096.41
2022-11-29T21:14:15.031Z,102100.84
2022-11-29T21:16:43.080Z,102103.00
2022-11-29T21:19:18.031Z,102101.25
2022-11-29T21:21:58.857Z,102100.03
2022-11-29T21:24:38.725Z,102096.34
2022-11-29T21:27:12.899Z,102075.16
2022-11-29T21:29:42.657Z,102106.75
2022-11-29T21:32:25.210Z,102108.09
2022-11-29T21:34:54.543Z,102115.78
2022-11-29T21:37:27.437Z,102100.16
2022-11-29T21:39:56.076Z,102110.06
2022-11-29T21:42:23.713Z,102100.59
2022-11-29T21:44:51.317Z,102103.34
2022-11-29T21:47:18.991Z,102109.25
2022-11-29T21:49:47.122Z,102108.41
2022-11-29T21:52:20.696Z,102110.19
2022-11-29T21:54:51.403Z,102112.78
2022-11-29T21:57:19.063Z,102111.00
2022-11-29T21:59:47.192Z,102117.88
2022-11-29T22:02:15.119Z,102117.19
2022-11-29T22:04:43.126Z,102118.56
2022-11-29T22:07:10.827Z,102113.75
2022-11-29T22:09:38.430Z,102118.56
2022-11-29T22:12:31.963Z,102121.44
2022-11-29T22:14:55.343Z,102121.84
2022-11-29T22:17:22.889Z,102121.56
2022-11-29T22:19:50.418Z,102117.19
2022-11-29T22:22:18.023Z,102124.75
2022-11-29T22:24:46.119Z,102119.91
2022-11-29T22:27:17.633Z,102121.44
2022-11-29T22:29:45.176Z,102119.66
2022-11-29T22:32:12.830Z,102115.16
2022-11-29T22:34:40.387Z,102122.97
2022-11-29T22:37:08.011Z,102121.06
2022-11-29T22:39:35.635Z,102123.78
2022-11-29T22:42:03.233Z,102123.66
2022-11-29T22:44:32.252Z,102128.56
2022-11-29T22:46:59.979Z,102130.63
2022-11-29T22:49:27.596Z,102130.91
2022-11-29T22:51:55.181Z,102133.25
2022-11-29T22:54:22.773Z,102133.13
2022-11-29T22:56:50.384Z,102139.28
2022-11-29T22:59:17.896Z,102145.44
2022-11-29T23:01:46.985Z,102134.44
2022-11-29T23:04:14.778Z,102137.31
2022-11-29T23:06:43.714Z,102139.66
2022-11-29T23:09:15.958Z,102142.53
2022-11-29T23:11:44.228Z,102148.94
2022-11-29T23:14:12.002Z,102141.78
2022-11-29T23:16:39.710Z,102131.06
2022-11-29T23:19:08.731Z,102156.59
2022-11-29T23:21:38.060Z,102152.78
2022-11-29T23:24:06.185Z,102161.78
2022-11-29T23:26:37.408Z,102158.50
2022-11-29T23:29:05.755Z,102159.56
2022-11-29T23:31:34.428Z,102159.16
2022-11-29T23:34:02.223Z,102156.78
2022-11-29T23:36:31.481Z,102153.66
2022-11-29T23:38:59.179Z,102155.19
2022-11-29T23:41:26.928Z,102128.00
2022-11-29T23:43:54.505Z,102145.25
2022-11-29T23:46:23.695Z,102129.47
2022-11-29T23:48:51.778Z,102161.63
2022-11-29T23:51:20.437Z,102159.84
2022-11-29T23:53:53.272Z,102152.25
2022-11-29T23:56:21.665Z,102162.09
2022-11-29T23:58:49.830Z,102159.72
